Time;durP1;ratioP1;P1;durP2;ratioP2;P2;SDS_P1;SDS_P2;PMS_P1;PMS_P2;Temp;Humidity;BMP_temperature;BMP_pressure;BME280_temperature;BME280_humidity;BME280_pressure;Samples;Min_cycle;Max_cycle;Signal;HPM_P1;HPM_P2
2021/06/15 00:01:49;;;;;;;25.05;17.55;;;17.80;99.90;;;;;;5093829;28;20074;-66
2021/06/15 00:04:14;;;;;;;27.48;17.80;;;17.70;99.90;;;;;;5095596;28;20060;-66
2021/06/15 00:06:40;;;;;;;27.23;17.63;;;17.70;99.90;;;;;;5093910;28;20059;-66
2021/06/15 00:09:06;;;;;;;27.45;17.33;;;17.60;99.90;;;;;;5094952;28;20024;-66
2021/06/15 00:11:31;;;;;;;31.13;18.13;;;17.50;99.90;;;;;;5095198;28;20032;-66
2021/06/15 00:13:57;;;;;;;29.98;18.83;;;17.40;99.90;;;;;;5095176;28;20053;-66
2021/06/15 00:16:23;;;;;;;31.13;18.45;;;17.40;99.90;;;;;;5095049;28;20020;-66
2021/06/15 00:18:48;;;;;;;27.75;19.42;;;17.40;99.90;;;;;;5093189;28;20477;-66
2021/06/15 00:21:14;;;;;;;32.28;19.50;;;17.40;99.90;;;;;;5093036;28;20031;-66
2021/06/15 00:23:39;;;;;;;30.60;18.95;;;17.30;99.90;;;;;;5094997;28;20024;-66
2021/06/15 00:26:05;;;;;;;30.98;19.80;;;17.30;99.90;;;;;;5095178;28;20099;-65
2021/06/15 00:28:30;;;;;;;27.70;19.52;;;17.20;99.90;;;;;;5077027;28;20028;-65
2021/06/15 00:30:56;;;;;;;28.42;18.48;;;17.20;99.90;;;;;;5093925;28;20111;-65
2021/06/15 00:33:21;;;;;;;33.05;20.15;;;17.10;99.90;;;;;;5094847;28;20028;-66
2021/06/15 00:35:47;;;;;;;35.92;21.23;;;17.00;99.90;;;;;;5093360;28;20043;-65
2021/06/15 00:38:13;;;;;;;28.52;20.05;;;17.00;99.90;;;;;;5095000;28;20016;-65
2021/06/15 00:40:38;;;;;;;30.35;20.58;;;16.90;99.90;;;;;;5093703;28;20421;-65
2021/06/15 00:43:04;;;;;;;33.38;21.45;;;16.90;99.90;;;;;;5094904;28;20027;-65
2021/06/15 00:45:32;;;;;;;33.92;21.35;;;16.80;99.90;;;;;;5093419;28;20032;-65
2021/06/15 00:47:58;;;;;;;27.38;20.90;;;16.80;99.90;;;;;;5094803;28;20028;-65
2021/06/15 00:50:26;;;;;;;30.95;22.13;;;16.80;99.90;;;;;;5093312;28;20115;-65
2021/06/15 00:52:53;;;;;;;36.40;22.25;;;16.70;99.90;;;;;;5093208;28;20028;-65
2021/06/15 00:55:20;;;;;;;30.67;22.08;;;16.70;99.90;;;;;;5094367;28;20468;-65
2021/06/15 00:57:46;;;;;;;28.90;21.23;;;16.70;99.90;;;;;;5094680;28;20077;-65
2021/06/15 01:00:12;;;;;;;40.70;22.98;;;16.70;99.90;;;;;;5093178;28;20016;-65
2021/06/15 01:02:38;;;;;;;35.80;22.83;;;16.60;99.90;;;;;;5094329;28;20099;-65
2021/06/15 01:05:06;;;;;;;33.90;21.80;;;16.60;99.90;;;;;;5094274;28;20125;-65
2021/06/15 01:07:52;;;;;;;35.13;22.10;;;16.60;99.90;;;;;;5094237;28;20067;-65
2021/06/15 01:10:58;;;;;;;35.97;23.23;;;16.50;99.90;;;;;;5092994;28;20035;-65
2021/06/15 01:13:44;;;;;;;35.72;22.52;;;16.50;99.90;;;;;;5094052;28;20028;-65
2021/06/15 01:16:34;;;;;;;33.97;23.98;;;16.50;99.90;;;;;;5094296;28;20533;-65
2021/06/15 01:19:13;;;;;;;36.70;23.17;;;16.40;99.90;;;;;;5093955;28;20097;-65
2021/06/15 01:21:55;;;;;;;37.50;24.02;;;16.40;99.90;;;;;;5092473;28;20020;-65
2021/06/15 01:24:31;;;;;;;38.25;23.67;;;16.40;99.90;;;;;;5092336;28;20024;-66
2021/06/15 01:27:36;;;;;;;37.30;25.13;;;16.40;99.90;;;;;;5094211;28;20106;-65
2021/06/15 01:30:06;;;;;;;32.20;24.33;;;16.30;99.90;;;;;;5093528;28;20028;-65
2021/06/15 01:32:33;;;;;;;37.63;24.73;;;16.30;99.90;;;;;;5093867;28;20031;-65
2021/06/15 01:35:00;;;;;;;37.58;23.45;;;16.30;99.90;;;;;;5093589;28;20031;-66
2021/06/15 01:37:30;;;;;;;31.38;22.67;;;16.20;99.90;;;;;;5094093;28;20016;-65
2021/06/15 01:40:01;;;;;;;38.60;25.20;;;16.10;99.90;;;;;;5094092;28;20024;-65
2021/06/15 01:42:47;;;;;;;37.97;25.42;;;16.10;99.90;;;;;;5093034;28;20024;-65
2021/06/15 01:45:22;;;;;;;35.42;24.58;;;16.00;99.90;;;;;;5094253;28;20023;-65
2021/06/15 01:48:13;;;;;;;37.88;27.65;;;15.90;99.90;;;;;;5092531;28;20036;-65
2021/06/15 01:50:42;;;;;;;43.25;28.55;;;16.00;99.90;;;;;;5093519;28;20020;-65
2021/06/15 01:53:10;;;;;;;48.08;29.98;;;16.00;99.90;;;;;;5093947;28;20024;-65
2021/06/15 01:55:37;;;;;;;43.70;29.38;;;16.10;99.90;;;;;;5092287;28;20032;-65
2021/06/15 01:58:04;;;;;;;42.17;30.02;;;16.10;99.90;;;;;;5092132;28;20020;-65
2021/06/15 02:00:31;;;;;;;39.10;27.20;;;16.30;99.90;;;;;;5092482;28;20024;-65
2021/06/15 02:03:00;;;;;;;43.38;29.80;;;16.30;99.90;;;;;;5093884;28;20043;-65
2021/06/15 02:05:31;;;;;;;41.83;26.73;;;16.30;99.90;;;;;;5093862;28;20024;-65
2021/06/15 02:08:01;;;;;;;40.78;27.75;;;16.20;99.90;;;;;;5093273;28;20077;-65
2021/06/15 02:10:29;;;;;;;40.72;28.13;;;16.20;99.90;;;;;;5092400;28;20028;-65
2021/06/15 02:12:55;;;;;;;38.67;26.02;;;16.10;99.90;;;;;;5093510;28;20031;-65
2021/06/15 02:15:27;;;;;;;39.13;28.00;;;16.20;99.90;;;;;;5093713;28;20465;-65
2021/06/15 02:17:54;;;;;;;42.88;30.20;;;16.20;99.90;;;;;;5093238;28;20016;-65
2021/06/15 02:20:26;;;;;;;52.50;33.05;;;16.10;99.90;;;;;;5092537;28;20020;-65
2021/06/15 02:22:54;;;;;;;50.67;33.97;;;16.30;99.90;;;;;;5092442;28;20024;-65
2021/06/15 02:25:25;;;;;;;52.03;35.55;;;16.40;99.90;;;;;;5093639;28;20544;-65
2021/06/15 02:27:51;;;;;;;52.20;34.22;;;16.40;99.90;;;;;;5092533;28;20034;-65
2021/06/15 02:30:16;;;;;;;51.40;34.47;;;16.40;99.90;;;;;;5093644;28;20060;-65
2021/06/15 02:32:44;;;;;;;56.28;34.22;;;16.40;99.90;;;;;;5093611;28;20471;-65
2021/06/15 02:35:11;;;;;;;50.50;36.28;;;16.30;99.90;;;;;;5093293;28;20470;-65
2021/06/15 02:37:43;;;;;;;54.88;35.08;;;16.30;99.90;;;;;;5093543;28;20020;-65
2021/06/15 02:40:09;;;;;;;53.92;34.35;;;16.20;99.90;;;;;;5093506;28;20016;-65
2021/06/15 02:42:40;;;;;;;52.63;35.17;;;16.20;99.90;;;;;;5094160;28;20024;-65
2021/06/15 02:45:07;;;;;;;54.35;35.95;;;16.10;99.90;;;;;;5096649;28;20055;-65
2021/06/15 02:47:35;;;;;;;46.63;34.38;;;16.10;99.90;;;;;;5096849;28;20419;-65
2021/06/15 02:50:01;;;;;;;56.42;36.80;;;16.00;99.90;;;;;;5097131;28;20370;-65
2021/06/15 02:52:51;;;;;;;55.00;35.80;;;16.00;99.90;;;;;;5096053;28;20031;-65
2021/06/15 02:55:23;;;;;;;51.22;36.75;;;16.00;99.90;;;;;;5096471;28;20377;-65
2021/06/15 02:57:49;;;;;;;52.60;37.60;;;16.00;99.90;;;;;;5096946;28;20017;-65
2021/06/15 03:00:15;;;;;;;57.45;35.47;;;16.00;99.90;;;;;;5095425;28;20503;-65
2021/06/15 03:02:40;;;;;;;57.75;36.60;;;16.00;99.90;;;;;;5096858;28;20492;-65
2021/06/15 03:05:08;;;;;;;53.70;35.72;;;16.00;99.90;;;;;;5096811;28;20020;-65
2021/06/15 03:07:34;;;;;;;50.83;34.95;;;15.90;99.90;;;;;;5096741;28;20042;-65
2021/06/15 03:10:02;;;;;;;50.45;35.00;;;15.90;99.90;;;;;;5094887;28;20492;-65
2021/06/15 03:12:33;;;;;;;53.08;34.97;;;15.80;99.90;;;;;;5096664;28;20028;-65
2021/06/15 03:15:04;;;;;;;50.85;34.45;;;15.80;99.90;;;;;;5096268;28;20023;-65
2021/06/15 03:17:32;;;;;;;50.22;33.63;;;15.80;99.90;;;;;;5095402;28;20471;-65
2021/06/15 03:20:07;;;;;;;54.55;36.90;;;15.80;99.90;;;;;;5096514;28;20048;-65
2021/06/15 03:22:57;;;;;;;51.83;35.88;;;15.80;99.90;;;;;;5096506;28;20423;-65
2021/06/15 03:25:31;;;;;;;57.97;35.85;;;15.90;99.90;;;;;;5094545;28;20463;-65
2021/06/15 03:28:01;;;;;;;56.40;36.65;;;15.90;99.90;;;;;;5096420;28;20032;-65
2021/06/15 03:30:27;;;;;;;53.58;35.83;;;15.90;99.90;;;;;;5096351;28;20053;-65
2021/06/15 03:33:13;;;;;;;49.67;34.75;;;15.90;99.90;;;;;;5096310;28;20484;-65
2021/06/15 03:35:41;;;;;;;53.03;35.13;;;15.90;99.90;;;;;;5095795;28;20133;-65
2021/06/15 03:38:08;;;;;;;51.42;34.97;;;16.00;99.90;;;;;;5094698;28;20606;-65
2021/06/15 03:40:37;;;;;;;53.63;33.95;;;16.00;99.90;;;;;;5096169;28;20023;-66
2021/06/15 03:43:05;;;;;;;50.75;36.05;;;16.00;99.90;;;;;;5094663;28;20358;-66
2021/06/15 03:45:35;;;;;;;56.80;36.97;;;15.90;99.90;;;;;;5094310;28;20020;-66
2021/06/15 03:48:02;;;;;;;55.63;35.20;;;16.00;99.90;;;;;;5095930;28;20026;-65
2021/06/15 03:50:28;;;;;;;49.45;34.70;;;16.00;99.90;;;;;;5095973;28;20024;-65
2021/06/15 03:52:56;;;;;;;51.47;35.15;;;16.00;99.90;;;;;;5095887;28;20069;-65
2021/06/15 03:55:23;;;;;;;57.55;36.20;;;15.90;99.90;;;;;;5095501;28;20078;-65
2021/06/15 03:57:50;;;;;;;56.30;35.30;;;15.90;99.90;;;;;;5094656;28;20019;-65
2021/06/15 04:00:19;;;;;;;52.53;35.95;;;15.90;99.90;;;;;;5093947;28;20066;-65
2021/06/15 04:02:47;;;;;;;56.33;36.15;;;15.90;99.90;;;;;;5094541;28;20023;-65
2021/06/15 04:05:17;;;;;;;55.42;34.90;;;15.90;99.90;;;;;;5094677;28;20449;-65
2021/06/15 04:07:45;;;;;;;56.85;35.65;;;15.90;99.90;;;;;;5095610;28;20467;-65
2021/06/15 04:10:13;;;;;;;58.40;36.28;;;16.00;99.90;;;;;;5095319;28;20024;-65
2021/06/15 04:12:39;;;;;;;55.42;35.83;;;16.00;99.90;;;;;;5095512;28;20051;-65
2021/06/15 04:15:08;;;;;;;54.90;35.10;;;16.10;99.90;;;;;;5093944;28;20035;-65
2021/06/15 04:17:38;;;;;;;58.60;38.20;;;16.10;99.90;;;;;;5095131;28;20467;-65
2021/06/15 04:20:05;;;;;;;54.55;35.20;;;16.10;99.90;;;;;;5095355;28;20453;-65
2021/06/15 04:22:35;;;;;;;57.40;35.63;;;16.20;99.90;;;;;;5094777;28;20056;-65
2021/06/15 04:25:05;;;;;;;55.40;34.80;;;16.30;99.90;;;;;;5095281;28;20393;-65
2021/06/15 04:27:31;;;;;;;50.60;33.88;;;16.30;99.90;;;;;;5095202;28;20486;-65
2021/06/15 04:29:57;;;;;;;49.15;33.72;;;16.30;99.90;;;;;;5093621;28;20115;-65
2021/06/15 04:32:32;;;;;;;50.80;32.92;;;16.50;99.90;;;;;;5095109;28;20039;-65
2021/06/15 04:35:02;;;;;;;47.40;33.33;;;16.70;99.90;;;;;;5094490;28;20074;-65
2021/06/15 04:37:32;;;;;;;48.08;31.75;;;16.70;99.90;;;;;;5094772;28;20030;-65
2021/06/15 04:40:11;;;;;;;41.30;29.48;;;17.00;99.90;;;;;;5094670;28;20457;-65
2021/06/15 04:45:38;;;;;;;45.03;28.73;;;17.80;99.90;;;;;;5153242;27;20218;-66
2021/06/15 04:48:08;;;;;;;44.83;29.90;;;17.70;99.90;;;;;;5132372;28;20469;-66
2021/06/15 04:50:35;;;;;;;40.22;29.05;;;17.70;99.90;;;;;;5132371;28;20030;-66
2021/06/15 04:53:03;;;;;;;37.53;28.10;;;17.70;99.90;;;;;;5132028;28;20039;-66
2021/06/15 04:55:36;;;;;;;41.33;27.77;;;18.00;99.90;;;;;;5131151;28;20024;-66
2021/06/15 04:58:03;;;;;;;38.00;27.00;;;18.40;99.90;;;;;;5130415;28;20380;-66
2021/06/15 05:00:30;;;;;;;38.90;26.00;;;18.60;99.90;;;;;;5130726;28;20028;-66
2021/06/15 05:02:58;;;;;;;41.65;26.77;;;19.20;99.90;;;;;;5131885;28;20011;-66
2021/06/15 05:05:24;;;;;;;38.63;27.05;;;19.10;99.90;;;;;;5132012;28;20418;-66
2021/06/15 05:07:59;;;;;;;35.60;26.50;;;18.80;99.90;;;;;;5130324;28;20110;-66
2021/06/15 05:10:27;;;;;;;42.88;26.85;;;19.10;99.90;;;;;;5131409;28;20016;-66
2021/06/15 05:12:54;;;;;;;40.92;26.52;;;19.40;99.90;;;;;;5131940;28;20461;-66
2021/06/15 05:15:23;;;;;;;35.05;25.45;;;20.00;99.90;;;;;;5130060;28;20065;-66
2021/06/15 05:17:52;;;;;;;37.55;23.88;;;20.20;99.90;;;;;;5131760;28;20026;-66
2021/06/15 05:20:20;;;;;;;37.00;23.75;;;20.90;99.90;;;;;;5130128;28;20498;-66
2021/06/15 05:22:53;;;;;;;42.47;29.70;;;21.40;99.90;;;;;;5130232;28;20050;-66
2021/06/15 05:25:19;;;;;;;30.30;21.53;;;21.60;99.90;;;;;;5130492;28;20472;-66
2021/06/15 05:27:45;;;;;;;37.80;22.02;;;21.80;99.90;;;;;;5130768;28;20019;-66
2021/06/15 05:30:11;;;;;;;31.13;21.92;;;21.50;99.90;;;;;;5130880;28;20140;-66
2021/06/15 05:32:37;;;;;;;37.55;21.75;;;21.40;99.90;;;;;;5130009;28;20441;-66
2021/06/15 05:35:02;;;;;;;283.23;35.08;;;21.20;99.90;;;;;;5112946;28;20062;-66
2021/06/15 05:37:28;;;;;;;33.10;22.60;;;21.10;99.90;;;;;;5131441;28;20023;-66
2021/06/15 05:39:56;;;;;;;38.47;22.30;;;21.10;99.90;;;;;;5129854;28;20353;-66
2021/06/15 05:42:22;;;;;;;29.95;21.83;;;21.60;99.90;;;;;;5131071;28;20024;-66
2021/06/15 05:44:48;;;;;;;30.15;22.05;;;22.20;99.90;;;;;;5130539;28;20411;-66
2021/06/15 05:47:14;;;;;;;34.40;21.73;;;22.50;99.90;;;;;;5130027;28;20023;-66
2021/06/15 05:49:39;;;;;;;28.95;22.80;;;22.30;99.90;;;;;;5131112;28;20487;-66
2021/06/15 05:52:09;;;;;;;36.65;23.20;;;22.30;99.90;;;;;;5112180;28;20023;-66
2021/06/15 05:54:36;;;;;;;35.22;23.15;;;21.80;99.90;;;;;;5129447;28;20433;-66
2021/06/15 05:57:01;;;;;;;39.78;24.13;;;21.90;99.90;;;;;;5116717;28;20065;-66
2021/06/15 05:59:27;;;;;;;37.50;24.35;;;21.80;99.90;;;;;;5117280;28;20475;-66
2021/06/15 06:01:53;;;;;;;35.10;24.55;;;21.20;99.90;;;;;;5116059;28;20039;-66
2021/06/15 06:04:22;;;;;;;34.10;23.13;;;21.90;99.90;;;;;;5115342;28;20053;-66
2021/06/15 06:09:37;;;;;;;30.83;22.52;;;23.00;99.90;;;;;;5116114;28;20059;-67
2021/06/15 06:12:03;;;;;;;40.10;23.73;;;22.50;99.90;;;;;;5098541;28;20019;-67
2021/06/15 06:14:29;;;;;;;31.23;22.38;;;23.20;99.90;;;;;;5116578;28;20028;-67
2021/06/15 06:16:54;;;;;;;33.47;23.27;;;24.00;99.90;;;;;;5116958;28;20028;-65
2021/06/15 06:19:20;;;;;;;34.72;25.33;;;24.60;99.90;;;;;;5116184;28;20107;-67
2021/06/15 06:21:46;;;;;;;30.40;22.15;;;24.50;99.90;;;;;;5115492;28;20023;-65
2021/06/15 06:24:12;;;;;;;29.33;22.40;;;24.20;99.90;;;;;;5114977;28;20088;-65
2021/06/15 06:26:39;;;;;;;29.80;22.75;;;24.10;99.90;;;;;;5096195;28;20016;-67
2021/06/15 06:29:04;;;;;;;31.38;23.88;;;23.60;99.90;;;;;;5095416;28;20381;-65
2021/06/15 06:31:30;;;;;;;28.35;22.15;;;23.70;99.90;;;;;;5086016;28;20031;-65
2021/06/15 06:33:56;;;;;;;30.90;23.13;;;24.60;99.90;;;;;;5111454;27;20039;-65
2021/06/15 06:36:22;;;;;;;33.53;23.95;;;24.30;99.90;;;;;;5102441;28;20361;-66
2021/06/15 06:38:51;;;;;;;31.58;24.73;;;22.70;99.90;;;;;;5107256;28;20039;-66
2021/06/15 06:41:16;;;;;;;32.53;24.27;;;22.20;99.90;;;;;;5093198;28;20031;-67
2021/06/15 06:43:42;;;;;;;38.70;24.38;;;22.40;99.90;;;;;;5109868;28;20043;-66
2021/06/15 06:46:08;;;;;;;33.80;23.67;;;22.60;99.90;;;;;;5112897;28;20016;-66
2021/06/15 06:48:33;;;;;;;36.80;23.98;;;22.10;99.90;;;;;;5102692;28;20035;-66
2021/06/15 06:50:59;;;;;;;30.58;21.75;;;22.80;99.90;;;;;;5100193;28;20529;-66
2021/06/15 06:53:24;;;;;;;32.00;23.08;;;23.70;99.90;;;;;;5115090;28;20393;-67
2021/06/15 06:55:50;;;;;;;31.40;22.67;;;24.10;99.90;;;;;;5099122;28;20047;-67
2021/06/15 06:58:16;;;;;;;32.75;22.58;;;24.60;99.90;;;;;;5093404;28;20457;-67
2021/06/15 07:00:41;;;;;;;30.08;21.48;;;25.60;99.90;;;;;;5107076;28;20023;-67
2021/06/15 07:03:07;;;;;;;29.77;22.20;;;25.80;99.90;;;;;;5113799;28;20388;-65
2021/06/15 07:05:32;;;;;;;28.45;20.30;;;25.80;99.90;;;;;;5111040;28;20027;-67
2021/06/15 07:07:58;;;;;;;26.02;20.75;;;26.20;99.90;;;;;;5102118;28;20036;-67
2021/06/15 07:10:24;;;;;;;30.08;20.55;;;25.90;99.90;;;;;;5093588;28;20028;-67
2021/06/15 07:12:50;;;;;;;28.92;20.40;;;25.30;99.90;;;;;;5094936;28;20020;-67
2021/06/15 07:15:16;;;;;;;25.60;19.70;;;25.80;99.90;;;;;;5099879;28;20031;-67
2021/06/15 07:17:42;;;;;;;25.35;20.63;;;26.10;99.90;;;;;;5110806;28;20024;-67
2021/06/15 07:20:08;;;;;;;27.45;19.85;;;26.30;99.90;;;;;;5112887;28;20023;-65
2021/06/15 07:22:35;;;;;;;25.45;19.67;;;26.00;99.90;;;;;;5112311;28;20050;-65
2021/06/15 07:25:00;;;;;;;26.17;20.10;;;25.60;99.90;;;;;;5102702;28;20392;-67
2021/06/15 07:27:26;;;;;;;28.75;20.85;;;25.60;99.90;;;;;;5092683;28;20031;-67
2021/06/15 07:29:52;;;;;;;28.65;20.75;;;24.60;99.90;;;;;;5094177;28;20112;-67
2021/06/15 07:32:17;;;;;;;27.33;19.10;;;25.00;99.90;;;;;;5113279;28;20035;-67
2021/06/15 07:34:43;;;;;;;28.63;20.30;;;25.10;99.90;;;;;;5108213;28;20032;-67
2021/06/15 07:37:08;;;;;;;25.17;19.50;;;25.30;99.90;;;;;;5106741;28;20024;-68
2021/06/15 07:39:34;;;;;;;23.38;19.60;;;26.30;99.90;;;;;;5113207;28;20054;-67
2021/06/15 07:42:00;;;;;;;22.67;18.75;;;26.60;99.90;;;;;;5102355;28;20024;-67
2021/06/15 07:44:26;;;;;;;22.88;19.00;;;27.20;99.90;;;;;;5103091;28;20498;-67
2021/06/15 07:46:54;;;;;;;25.85;19.05;;;27.10;99.90;;;;;;5101448;28;20027;-67
2021/06/15 07:49:20;;;;;;;23.88;19.40;;;26.90;99.90;;;;;;5113944;28;20023;-67
2021/06/15 07:51:46;;;;;;;21.83;17.92;;;26.80;99.90;;;;;;5092660;28;20051;-67
2021/06/15 07:54:11;;;;;;;25.75;16.25;;;27.20;99.90;;;;;;5094228;28;20031;-67
2021/06/15 07:56:37;;;;;;;21.27;16.67;;;27.30;99.90;;;;;;5109371;28;20066;-67
2021/06/15 07:59:02;;;;;;;25.35;20.58;;;28.30;99.90;;;;;;5095125;28;20028;-67
2021/06/15 08:01:28;;;;;;;26.67;22.02;;;26.20;99.90;;;;;;5102083;28;20130;-67
2021/06/15 08:03:54;;;;;;;32.63;24.42;;;25.30;99.90;;;;;;5094814;28;20024;-67
2021/06/15 08:06:19;;;;;;;31.67;24.98;;;24.70;99.90;;;;;;5094533;28;20161;-66
2021/06/15 08:08:45;;;;;;;36.03;25.33;;;24.60;99.90;;;;;;5100364;28;20028;-66
2021/06/15 08:11:11;;;;;;;36.80;26.73;;;25.00;99.90;;;;;;5102651;28;20476;-67
2021/06/15 08:13:37;;;;;;;36.30;25.70;;;24.30;99.90;;;;;;5098077;28;20021;-66
2021/06/15 08:16:03;;;;;;;35.05;26.27;;;24.00;99.90;;;;;;5105912;28;20210;-67
2021/06/15 08:18:29;;;;;;;35.20;27.42;;;24.70;99.90;;;;;;5107720;28;20504;-66
2021/06/15 08:20:54;;;;;;;40.83;28.20;;;24.40;99.90;;;;;;5101591;28;20034;-66
2021/06/15 08:23:23;;;;;;;36.83;28.70;;;23.80;99.90;;;;;;5111129;28;20032;-66
2021/06/15 08:25:49;;;;;;;36.15;27.13;;;23.30;99.90;;;;;;5102317;28;20020;-67
2021/06/15 08:28:15;;;;;;;35.80;26.30;;;23.70;99.90;;;;;;5092891;28;20460;-67
2021/06/15 08:30:41;;;;;;;37.75;28.02;;;23.10;99.90;;;;;;5095044;28;20696;-66
2021/06/15 08:33:07;;;;;;;38.65;26.48;;;22.90;99.90;;;;;;5100944;28;20107;-66
2021/06/15 08:35:34;;;;;;;40.45;27.00;;;23.00;99.90;;;;;;5100602;28;20039;-67
2021/06/15 08:38:00;;;;;;;32.92;25.17;;;23.00;99.90;;;;;;5099484;28;20070;-67
2021/06/15 08:40:25;;;;;;;38.45;26.58;;;22.70;99.90;;;;;;5100859;28;20032;-66
2021/06/15 08:42:51;;;;;;;37.22;26.35;;;22.50;99.90;;;;;;5103698;28;20028;-66
2021/06/15 08:45:17;;;;;;;36.65;25.88;;;21.80;99.90;;;;;;5102635;28;20070;-66
2021/06/15 08:47:45;;;;;;;37.58;24.88;;;21.70;99.90;;;;;;5100716;28;20235;-66
2021/06/15 08:50:14;;;;;;;37.42;26.42;;;21.70;99.90;;;;;;5102691;28;20110;-66
2021/06/15 08:52:40;;;;;;;35.90;25.88;;;22.10;99.90;;;;;;5092166;28;20472;-67
2021/06/15 08:55:07;;;;;;;34.53;23.70;;;22.60;99.90;;;;;;5113304;28;20023;-67
2021/06/15 08:57:35;;;;;;;36.63;25.17;;;23.10;99.90;;;;;;5094017;28;20594;-66
2021/06/15 09:00:02;;;;;;;33.42;25.70;;;23.40;99.90;;;;;;5110033;28;20043;-66
2021/06/15 09:02:27;;;;;;;36.50;27.40;;;23.40;99.90;;;;;;5101939;28;20019;-66
2021/06/15 09:04:53;;;;;;;33.97;26.13;;;23.40;99.90;;;;;;5104284;28;20506;-66
2021/06/15 09:07:19;;;;;;;37.42;26.52;;;23.60;99.90;;;;;;5098787;28;20020;-67
2021/06/15 09:09:47;;;;;;;36.00;26.27;;;23.60;99.90;;;;;;5099398;28;20020;-67
2021/06/15 09:12:14;;;;;;;35.25;27.23;;;23.50;99.90;;;;;;5104037;28;20024;-67
2021/06/15 09:14:52;;;;;;;31.95;25.45;;;23.80;99.90;;;;;;5098964;28;20059;-67
2021/06/15 09:17:35;;;;;;;33.67;25.88;;;24.00;99.90;;;;;;5103264;28;20033;-67
2021/06/15 09:20:27;;;;;;;36.78;26.80;;;24.50;99.90;;;;;;5098913;28;20486;-67
2021/06/15 09:22:58;;;;;;;28.58;24.90;;;25.10;99.90;;;;;;5093386;28;20043;-67
2021/06/15 09:25:24;;;;;;;33.08;25.67;;;25.50;99.90;;;;;;5096034;28;20119;-67
2021/06/15 09:27:50;;;;;;;30.33;23.90;;;25.10;99.90;;;;;;5112865;28;20080;-67
2021/06/15 09:30:16;;;;;;;28.40;23.67;;;26.10;99.90;;;;;;5102290;28;20020;-67
2021/06/15 09:32:44;;;;;;;31.42;25.30;;;27.10;99.90;;;;;;5103768;28;20102;-67
2021/06/15 09:35:13;;;;;;;31.17;24.60;;;27.00;99.90;;;;;;5096399;28;20023;-67
2021/06/15 09:37:50;;;;;;;24.92;21.98;;;27.10;99.90;;;;;;5100198;28;20035;-67
2021/06/15 09:40:19;;;;;;;28.42;22.63;;;28.00;99.90;;;;;;5094453;28;20024;-67
2021/06/15 09:43:06;;;;;;;26.67;22.90;;;27.80;99.90;;;;;;5108910;28;20031;-67
2021/06/15 09:45:42;;;;;;;27.08;22.20;;;27.30;99.90;;;;;;5097444;28;20036;-67
2021/06/15 09:48:29;;;;;;;24.33;21.77;;;27.30;99.90;;;;;;5113005;28;20027;-67
2021/06/15 09:51:01;;;;;;;24.13;18.85;;;29.10;99.90;;;;;;5109144;28;20099;-68
2021/06/15 09:53:33;;;;;;;27.98;22.55;;;29.50;99.90;;;;;;5108610;28;20031;-67
2021/06/15 09:56:02;;;;;;;23.65;20.58;;;27.70;99.90;;;;;;5107324;28;20565;-68
2021/06/15 09:58:49;;;;;;;24.38;19.65;;;27.60;99.90;;;;;;5092442;28;20024;-67
2021/06/15 10:01:40;;;;;;;24.23;21.80;;;29.00;99.90;;;;;;5116178;28;20106;-68
2021/06/15 10:04:14;;;;;;;24.67;21.33;;;27.90;99.90;;;;;;5099366;28;20546;-67
2021/06/15 10:06:47;;;;;;;23.70;20.90;;;28.40;99.90;;;;;;5098798;28;20028;-68
2021/06/15 10:09:21;;;;;;;26.88;20.45;;;28.90;99.90;;;;;;5106227;28;20415;-67
2021/06/15 10:11:46;;;;;;;24.17;20.77;;;28.50;99.90;;;;;;5103533;28;20024;-67
2021/06/15 10:14:13;;;;;;;24.60;22.00;;;29.30;99.90;;;;;;5111001;28;20027;-67
2021/06/15 10:16:38;;;;;;;23.63;21.27;;;29.00;99.90;;;;;;5114743;28;20023;-67
2021/06/15 10:19:04;;;;;;;24.77;20.10;;;29.10;99.90;;;;;;5112213;28;20111;-67
2021/06/15 10:21:31;;;;;;;22.90;20.50;;;29.70;99.00;;;;;;5114279;28;20055;-68
2021/06/15 10:23:56;;;;;;;21.88;19.58;;;29.70;98.40;;;;;;5111187;28;20059;-67
2021/06/15 10:26:22;;;;;;;24.70;20.42;;;28.70;99.90;;;;;;5094967;28;20055;-67
2021/06/15 10:28:48;;;;;;;23.50;21.05;;;27.80;99.90;;;;;;5100973;28;20084;-67
2021/06/15 10:31:14;;;;;;;22.60;19.33;;;27.00;99.90;;;;;;5110277;28;20509;-67
2021/06/15 10:33:43;;;;;;;21.48;18.92;;;28.20;99.70;;;;;;5111526;28;20030;-67
2021/06/15 10:36:09;;;;;;;17.95;16.05;;;28.90;99.90;;;;;;5113066;28;20023;-67
2021/06/15 10:38:40;;;;;;;24.75;19.83;;;29.40;99.60;;;;;;5103934;28;20437;-67
2021/06/15 10:41:07;;;;;;;22.55;17.83;;;29.00;98.20;;;;;;5100176;28;20046;-67
2021/06/15 10:43:40;;;;;;;24.75;21.30;;;28.30;98.50;;;;;;5099494;28;20039;-67
2021/06/15 10:49:00;;;;;;;26.25;19.02;;;26.60;99.90;;;;;;5109568;27;20133;-66
2021/06/15 10:51:31;;;;;;;20.77;16.52;;;26.60;99.90;;;;;;5084258;28;20020;-66
2021/06/15 10:54:02;;;;;;;15.82;14.15;;;27.20;99.90;;;;;;5069745;28;20226;-66
2021/06/15 10:56:31;;;;;;;17.63;14.63;;;27.30;99.90;;;;;;5070056;28;20102;-66
2021/06/15 10:59:03;;;;;;;19.60;14.20;;;27.70;99.90;;;;;;5068799;28;20033;-66
2021/06/15 11:01:31;;;;;;;15.73;13.13;;;26.50;99.90;;;;;;5070178;28;20020;-65
2021/06/15 11:04:11;;;;;;;14.60;11.68;;;26.30;99.90;;;;;;5069234;28;20463;-66
2021/06/15 11:06:40;;;;;;;20.33;12.75;;;25.40;99.90;;;;;;5079357;28;20033;-65
2021/06/15 11:14:37;;;;;;;17.23;14.90;;;26.00;99.90;;;;;;5102306;27;20430;-65
2021/06/15 11:17:07;;;;;;;27.60;13.88;;;26.40;99.90;;;;;;5059172;28;20031;-65
2021/06/15 11:19:36;;;;;;;18.25;13.00;;;25.50;99.90;;;;;;5078291;28;20034;-65
2021/06/15 11:22:16;;;;;;;17.80;13.57;;;25.60;99.90;;;;;;5078912;28;20054;-66
2021/06/15 11:24:48;;;;;;;14.10;9.90;;;25.50;99.90;;;;;;5077183;28;20025;-66
2021/06/15 11:30:16;;;;;;;14.10;10.00;;;25.50;99.80;;;;;;5105188;27;20620;-65
2021/06/15 11:33:04;;;;;;;14.35;10.25;;;26.40;99.40;;;;;;5088501;28;20028;-65
2021/06/15 11:35:31;;;;;;;11.32;9.80;;;26.00;99.50;;;;;;5088284;28;20032;-65
2021/06/15 11:38:03;;;;;;;10.95;8.68;;;25.80;99.90;;;;;;5089245;28;20024;-66
2021/06/15 11:40:32;;;;;;;13.98;6.93;;;26.10;99.90;;;;;;5080855;28;20032;-65
2021/06/15 11:45:52;;;;;;;10.27;7.25;;;26.50;96.70;;;;;;5124299;27;20146;-66
2021/06/15 11:50:55;;;;;;;8.48;5.60;;;26.50;97.20;;;;;;5121389;27;20130;-67
2021/06/15 11:53:22;;;;;;;8.18;5.20;;;25.70;96.60;;;;;;5110260;28;20024;-66
2021/06/15 11:55:54;;;;;;;9.65;5.45;;;25.50;96.20;;;;;;5107956;28;20487;-65
2021/06/15 11:58:37;;;;;;;7.15;5.20;;;25.40;96.80;;;;;;5102695;28;20082;-65
2021/06/15 12:01:09;;;;;;;;;;;25.10;97.50;;;;;;5107789;28;20435;-65
2021/06/15 12:03:38;;;;;;;7.47;5.40;;;25.30;97.00;;;;;;5108910;28;19911;-65
2021/06/15 12:06:05;;;;;;;8.70;4.80;;;25.60;97.70;;;;;;5108595;28;20067;-65
2021/06/15 12:08:32;;;;;;;7.63;5.25;;;25.80;96.70;;;;;;5103175;28;20021;-65
2021/06/15 12:10:59;;;;;;;8.40;5.28;;;25.20;96.70;;;;;;5089621;28;20046;-65
2021/06/15 12:13:26;;;;;;;7.65;5.25;;;25.50;97.20;;;;;;5105909;28;20020;-65
2021/06/15 12:16:01;;;;;;;10.23;5.65;;;25.40;98.30;;;;;;5097613;28;20080;-65
2021/06/15 12:21:09;;;;;;;8.38;4.68;;;25.40;97.60;;;;;;5143241;27;20153;-65
2021/06/15 12:23:40;;;;;;;7.68;3.92;;;25.60;95.30;;;;;;5099154;28;20077;-65
2021/06/15 12:26:11;;;;;;;5.22;3.72;;;26.10;95.80;;;;;;5091475;28;20033;-65
2021/06/15 12:28:40;;;;;;;5.30;3.92;;;26.70;95.60;;;;;;5091249;28;20098;-66
2021/06/15 12:31:10;;;;;;;5.00;3.85;;;26.10;95.00;;;;;;5089584;28;20024;-66
2021/06/15 12:33:37;;;;;;;6.80;5.00;;;26.50;95.10;;;;;;5091678;28;20497;-66
2021/06/15 12:36:05;;;;;;;9.05;4.30;;;26.60;94.10;;;;;;5109071;28;20035;-66
2021/06/15 12:38:31;;;;;;;5.13;4.35;;;26.10;95.40;;;;;;5108077;28;20058;-66
2021/06/15 12:40:57;;;;;;;5.10;3.80;;;25.40;95.90;;;;;;5089948;28;20056;-65
2021/06/15 12:43:26;;;;;;;9.68;6.00;;;25.60;96.10;;;;;;5089362;28;20032;-65
2021/06/15 12:46:04;;;;;;;6.60;4.63;;;25.50;95.80;;;;;;5110083;28;20024;-65
2021/06/15 12:48:30;;;;;;;11.32;5.35;;;25.80;96.80;;;;;;5097980;28;20462;-65
2021/06/15 12:51:05;;;;;;;8.05;5.70;;;25.80;95.30;;;;;;5092949;28;20118;-65
2021/06/15 12:53:33;;;;;;;14.32;5.60;;;25.20;95.20;;;;;;5091786;28;20063;-65
2021/06/15 12:55:59;;;;;;;5.60;4.13;;;25.20;96.00;;;;;;5099694;28;20046;-65
2021/06/15 12:58:27;;;;;;;5.85;4.78;;;25.50;95.80;;;;;;5088637;28;20115;-65
2021/06/15 13:00:52;;;;;;;6.95;4.70;;;26.00;93.80;;;;;;5092828;28;20029;-65
2021/06/15 13:03:18;;;;;;;7.47;4.60;;;25.90;93.70;;;;;;5088725;28;20036;-65